Skip Navigation Links
NOAA logo - Click to go to the NOAA homepage
NOAA's National Weather Service
Alaska Aviation Weather Unit
  NWS logo - Click to go to the NWS homepage
Left Navbar Graphic     21 AKDT = 05 GMT

   
NOAA is celebrating 200 years of science, service, and stewardship. Visit the NOAA 200th celebration Web site to learn more.
USA.gov is the U.S. Government's official Web portal to all Federal, state and local government Web resources and services.
Facebook
NWS on Facebook

AAWU Home :: Display TAF Add Bookmark
TAF PACV 262330Z 2700/2724 25006KT P6SM VCSH BKN050
     FM270600 VRB03KT P6SM VCSH BKN050
     FM272200 25006KT P6SM VCSH BKN050=
METAR PACV 262353Z 28007KT 10SM -RA SCT032 OVC080 11/04 A2950 RMK AO2
     RAB53 SLP990 P0000 60000 T01110039 10117 20072 56006=

METAR PACV 270053Z 23007KT 10SM SCT032 BKN075 BKN200 11/04 A2950 RMK
 AO2 RAE00 SLP989 P0000 T01110044=

METAR PACV 270153Z 19008KT 150V230 10SM FEW032 SCT070 BKN095 BKN200
 11/04 A2950 RMK AO2 SLP991 T01060044=

METAR PACV 270253Z 22006KT 10SM FEW034 SCT060 BKN085 BKN200 10/04
 A2951 RMK AO2 SLP994 60000 T01000044 53005=

METAR PACV 270353Z 21006KT 10SM FEW028 SCT065 BKN080 BKN200 09/04 A2953
     RMK AO2 SLP999 T00890044=

METAR PACV 270453Z VRB03KT 10SM FEW028 SCT065 BKN075 BKN200 08/04
 A2954 RMK AO2 SLP003 T00830039=


NOAA's National Weather Service
Alaska Aviation Weather Unit
6930 Sand Lake Road
Anchorage, AK 99502-1845
Disclaimer
Credits
Glossary
Privacy Policy
About Us
Career Opportunities
Contact AAWU Internet Services Site last modified: April, 17th 2012